sensor_id;sensor_type;location;lat;lon;timestamp;P1;durP1;ratioP1;P2;durP2;ratioP2
71303;SDS011;59091;47.446;19.148;2024-02-21T00:00:55;9.05;;;5.10;;
71303;SDS011;59091;47.446;19.148;2024-02-21T00:03:21;6.55;;;4.72;;
71303;SDS011;59091;47.446;19.148;2024-02-21T00:05:46;8.75;;;5.13;;
71303;SDS011;59091;47.446;19.148;2024-02-21T00:08:12;6.32;;;4.78;;
71303;SDS011;59091;47.446;19.148;2024-02-21T00:10:37;7.45;;;5.60;;
71303;SDS011;59091;47.446;19.148;2024-02-21T00:13:03;7.25;;;5.25;;
71303;SDS011;59091;47.446;19.148;2024-02-21T00:15:28;6.88;;;5.13;;
71303;SDS011;59091;47.446;19.148;2024-02-21T00:17:54;6.60;;;3.83;;
71303;SDS011;59091;47.446;19.148;2024-02-21T00:20:19;5.97;;;3.95;;
71303;SDS011;59091;47.446;19.148;2024-02-21T00:22:45;3.67;;;3.30;;
71303;SDS011;59091;47.446;19.148;2024-02-21T00:25:10;5.38;;;3.85;;
71303;SDS011;59091;47.446;19.148;2024-02-21T00:27:36;5.63;;;3.40;;
71303;SDS011;59091;47.446;19.148;2024-02-21T00:30:02;4.43;;;3.80;;
71303;SDS011;59091;47.446;19.148;2024-02-21T00:32:27;4.38;;;3.70;;
71303;SDS011;59091;47.446;19.148;2024-02-21T00:34:53;5.22;;;3.58;;
71303;SDS011;59091;47.446;19.148;2024-02-21T00:37:18;4.28;;;3.22;;
71303;SDS011;59091;47.446;19.148;2024-02-21T00:39:44;5.43;;;3.20;;
71303;SDS011;59091;47.446;19.148;2024-02-21T00:42:09;5.75;;;3.33;;
71303;SDS011;59091;47.446;19.148;2024-02-21T00:44:34;5.97;;;3.28;;
71303;SDS011;59091;47.446;19.148;2024-02-21T00:47:00;3.28;;;2.97;;
71303;SDS011;59091;47.446;19.148;2024-02-21T00:49:25;4.30;;;2.55;;
71303;SDS011;59091;47.446;19.148;2024-02-21T00:51:51;10.75;;;3.03;;
71303;SDS011;59091;47.446;19.148;2024-02-21T00:54:16;3.35;;;2.90;;
71303;SDS011;59091;47.446;19.148;2024-02-21T00:56:42;2.90;;;2.60;;
71303;SDS011;59091;47.446;19.148;2024-02-21T00:59:08;6.10;;;3.00;;
71303;SDS011;59091;47.446;19.148;2024-02-21T01:01:33;6.15;;;2.95;;
71303;SDS011;59091;47.446;19.148;2024-02-21T01:03:58;4.35;;;2.80;;
71303;SDS011;59091;47.446;19.148;2024-02-21T01:06:24;3.15;;;2.67;;
71303;SDS011;59091;47.446;19.148;2024-02-21T01:08:49;6.25;;;2.95;;
71303;SDS011;59091;47.446;19.148;2024-02-21T01:11:15;3.35;;;2.60;;
71303;SDS011;59091;47.446;19.148;2024-02-21T01:13:41;3.00;;;2.33;;
71303;SDS011;59091;47.446;19.148;2024-02-21T01:16:06;3.65;;;2.53;;
71303;SDS011;59091;47.446;19.148;2024-02-21T01:18:33;2.90;;;2.40;;
71303;SDS011;59091;47.446;19.148;2024-02-21T01:20:59;3.58;;;2.33;;
71303;SDS011;59091;47.446;19.148;2024-02-21T01:23:24;4.40;;;2.90;;
71303;SDS011;59091;47.446;19.148;2024-02-21T01:25:50;4.13;;;2.90;;
71303;SDS011;59091;47.446;19.148;2024-02-21T01:28:16;4.38;;;2.60;;
71303;SDS011;59091;47.446;19.148;2024-02-21T01:30:41;3.67;;;2.63;;
71303;SDS011;59091;47.446;19.148;2024-02-21T01:33:06;7.63;;;2.60;;
71303;SDS011;59091;47.446;19.148;2024-02-21T01:35:32;5.55;;;3.08;;
71303;SDS011;59091;47.446;19.148;2024-02-21T01:37:57;3.45;;;2.50;;
71303;SDS011;59091;47.446;19.148;2024-02-21T01:40:23;3.17;;;2.60;;
71303;SDS011;59091;47.446;19.148;2024-02-21T01:42:48;2.58;;;2.15;;
71303;SDS011;59091;47.446;19.148;2024-02-21T01:45:13;4.30;;;1.92;;
71303;SDS011;59091;47.446;19.148;2024-02-21T01:47:39;3.15;;;1.80;;
71303;SDS011;59091;47.446;19.148;2024-02-21T01:50:05;2.75;;;1.90;;
71303;SDS011;59091;47.446;19.148;2024-02-21T01:52:31;3.85;;;2.10;;
71303;SDS011;59091;47.446;19.148;2024-02-21T01:54:58;5.05;;;2.03;;
71303;SDS011;59091;47.446;19.148;2024-02-21T01:57:24;4.90;;;1.90;;
71303;SDS011;59091;47.446;19.148;2024-02-21T01:59:49;2.70;;;1.80;;
71303;SDS011;59091;47.446;19.148;2024-02-21T02:02:15;3.22;;;2.17;;
71303;SDS011;59091;47.446;19.148;2024-02-21T02:04:41;5.38;;;2.38;;
71303;SDS011;59091;47.446;19.148;2024-02-21T02:07:07;3.67;;;2.03;;
71303;SDS011;59091;47.446;19.148;2024-02-21T02:09:33;6.68;;;2.30;;
71303;SDS011;59091;47.446;19.148;2024-02-21T02:11:59;2.28;;;2.00;;
71303;SDS011;59091;47.446;19.148;2024-02-21T02:14:25;2.90;;;2.00;;
71303;SDS011;59091;47.446;19.148;2024-02-21T02:16:50;5.28;;;2.35;;
71303;SDS011;59091;47.446;19.148;2024-02-21T02:19:16;3.83;;;2.20;;
71303;SDS011;59091;47.446;19.148;2024-02-21T02:21:42;2.78;;;2.00;;
71303;SDS011;59091;47.446;19.148;2024-02-21T02:24:13;3.80;;;2.20;;
71303;SDS011;59091;47.446;19.148;2024-02-21T02:26:39;3.60;;;2.40;;
71303;SDS011;59091;47.446;19.148;2024-02-21T02:29:05;5.88;;;2.50;;
71303;SDS011;59091;47.446;19.148;2024-02-21T02:31:30;2.58;;;2.08;;
71303;SDS011;59091;47.446;19.148;2024-02-21T02:33:56;4.55;;;2.47;;
71303;SDS011;59091;47.446;19.148;2024-02-21T02:36:21;4.10;;;2.30;;
71303;SDS011;59091;47.446;19.148;2024-02-21T02:38:46;5.03;;;2.65;;
71303;SDS011;59091;47.446;19.148;2024-02-21T02:41:12;4.25;;;2.55;;
71303;SDS011;59091;47.446;19.148;2024-02-21T02:43:37;3.67;;;2.78;;
71303;SDS011;59091;47.446;19.148;2024-02-21T02:46:03;6.53;;;2.83;;
71303;SDS011;59091;47.446;19.148;2024-02-21T02:48:29;5.32;;;2.72;;
71303;SDS011;59091;47.446;19.148;2024-02-21T02:50:54;4.68;;;2.70;;
71303;SDS011;59091;47.446;19.148;2024-02-21T02:53:20;5.97;;;2.60;;
71303;SDS011;59091;47.446;19.148;2024-02-21T02:55:45;5.40;;;2.92;;
71303;SDS011;59091;47.446;19.148;2024-02-21T02:58:11;4.80;;;2.72;;
71303;SDS011;59091;47.446;19.148;2024-02-21T03:00:36;7.22;;;2.90;;
71303;SDS011;59091;47.446;19.148;2024-02-21T03:03:03;4.00;;;2.60;;
71303;SDS011;59091;47.446;19.148;2024-02-21T03:05:29;5.28;;;3.00;;
71303;SDS011;59091;47.446;19.148;2024-02-21T03:07:54;5.97;;;2.90;;
71303;SDS011;59091;47.446;19.148;2024-02-21T03:10:20;4.95;;;2.90;;
71303;SDS011;59091;47.446;19.148;2024-02-21T03:12:46;4.85;;;2.80;;
71303;SDS011;59091;47.446;19.148;2024-02-21T03:15:12;8.05;;;3.28;;
71303;SDS011;59091;47.446;19.148;2024-02-21T03:17:38;2.85;;;2.60;;
71303;SDS011;59091;47.446;19.148;2024-02-21T03:20:04;4.72;;;2.67;;
71303;SDS011;59091;47.446;19.148;2024-02-21T03:22:31;5.93;;;3.13;;
71303;SDS011;59091;47.446;19.148;2024-02-21T03:24:57;5.20;;;2.70;;
71303;SDS011;59091;47.446;19.148;2024-02-21T03:27:23;6.95;;;3.38;;
71303;SDS011;59091;47.446;19.148;2024-02-21T03:29:48;10.40;;;2.90;;
71303;SDS011;59091;47.446;19.148;2024-02-21T03:32:13;4.95;;;3.10;;
71303;SDS011;59091;47.446;19.148;2024-02-21T03:34:39;4.72;;;2.97;;
71303;SDS011;59091;47.446;19.148;2024-02-21T03:37:04;6.15;;;2.90;;
71303;SDS011;59091;47.446;19.148;2024-02-21T03:39:33;4.57;;;2.70;;
71303;SDS011;59091;47.446;19.148;2024-02-21T03:41:58;6.78;;;2.72;;
71303;SDS011;59091;47.446;19.148;2024-02-21T03:44:30;4.72;;;2.70;;
71303;SDS011;59091;47.446;19.148;2024-02-21T03:46:56;6.95;;;2.70;;
71303;SDS011;59091;47.446;19.148;2024-02-21T03:49:22;5.28;;;2.53;;
71303;SDS011;59091;47.446;19.148;2024-02-21T03:51:47;6.50;;;2.80;;
71303;SDS011;59091;47.446;19.148;2024-02-21T03:54:12;9.73;;;3.05;;
71303;SDS011;59091;47.446;19.148;2024-02-21T03:56:38;8.32;;;2.80;;
71303;SDS011;59091;47.446;19.148;2024-02-21T03:59:05;4.80;;;2.65;;
71303;SDS011;59091;47.446;19.148;2024-02-21T04:01:33;6.05;;;3.63;;
71303;SDS011;59091;47.446;19.148;2024-02-21T04:03:59;10.57;;;3.85;;
71303;SDS011;59091;47.446;19.148;2024-02-21T04:06:25;9.10;;;4.13;;
71303;SDS011;59091;47.446;19.148;2024-02-21T04:08:50;9.82;;;4.05;;
71303;SDS011;59091;47.446;19.148;2024-02-21T04:11:15;10.45;;;5.35;;
71303;SDS011;59091;47.446;19.148;2024-02-21T04:13:42;12.18;;;4.60;;
71303;SDS011;59091;47.446;19.148;2024-02-21T04:16:08;7.88;;;3.97;;
71303;SDS011;59091;47.446;19.148;2024-02-21T04:18:33;8.40;;;4.13;;
71303;SDS011;59091;47.446;19.148;2024-02-21T04:20:58;11.52;;;4.15;;
71303;SDS011;59091;47.446;19.148;2024-02-21T04:23:24;7.03;;;3.80;;
71303;SDS011;59091;47.446;19.148;2024-02-21T04:25:49;8.10;;;4.65;;
71303;SDS011;59091;47.446;19.148;2024-02-21T04:28:15;11.55;;;4.05;;
71303;SDS011;59091;47.446;19.148;2024-02-21T04:30:40;12.02;;;4.10;;
71303;SDS011;59091;47.446;19.148;2024-02-21T04:33:05;8.57;;;4.22;;
71303;SDS011;59091;47.446;19.148;2024-02-21T04:35:31;8.40;;;4.07;;
71303;SDS011;59091;47.446;19.148;2024-02-21T04:37:56;9.27;;;4.25;;
71303;SDS011;59091;47.446;19.148;2024-02-21T04:40:22;8.40;;;4.82;;
71303;SDS011;59091;47.446;19.148;2024-02-21T04:42:47;9.80;;;4.63;;
71303;SDS011;59091;47.446;19.148;2024-02-21T04:45:13;9.60;;;5.40;;
71303;SDS011;59091;47.446;19.148;2024-02-21T04:47:38;9.82;;;5.22;;
71303;SDS011;59091;47.446;19.148;2024-02-21T04:50:03;10.50;;;5.32;;
71303;SDS011;59091;47.446;19.148;2024-02-21T04:52:29;12.93;;;5.40;;
71303;SDS011;59091;47.446;19.148;2024-02-21T04:54:54;15.30;;;5.28;;
71303;SDS011;59091;47.446;19.148;2024-02-21T04:57:21;11.52;;;5.03;;
71303;SDS011;59091;47.446;19.148;2024-02-21T04:59:46;7.50;;;4.72;;
71303;SDS011;59091;47.446;19.148;2024-02-21T05:02:13;11.60;;;5.38;;
71303;SDS011;59091;47.446;19.148;2024-02-21T05:04:38;10.18;;;5.43;;
71303;SDS011;59091;47.446;19.148;2024-02-21T05:07:05;10.30;;;5.53;;
71303;SDS011;59091;47.446;19.148;2024-02-21T05:09:30;11.55;;;5.03;;
71303;SDS011;59091;47.446;19.148;2024-02-21T05:11:56;12.55;;;5.10;;
71303;SDS011;59091;47.446;19.148;2024-02-21T05:14:24;13.05;;;5.22;;
71303;SDS011;59091;47.446;19.148;2024-02-21T05:16:50;6.75;;;4.35;;
71303;SDS011;59091;47.446;19.148;2024-02-21T05:19:15;6.50;;;4.60;;
71303;SDS011;59091;47.446;19.148;2024-02-21T05:21:40;9.43;;;4.57;;
71303;SDS011;59091;47.446;19.148;2024-02-21T05:24:06;6.43;;;4.10;;
71303;SDS011;59091;47.446;19.148;2024-02-21T05:26:31;5.38;;;4.07;;
71303;SDS011;59091;47.446;19.148;2024-02-21T05:28:57;10.10;;;4.90;;
71303;SDS011;59091;47.446;19.148;2024-02-21T05:31:24;9.00;;;4.97;;
71303;SDS011;59091;47.446;19.148;2024-02-21T05:33:49;9.70;;;5.57;;
71303;SDS011;59091;47.446;19.148;2024-02-21T05:36:15;11.68;;;4.60;;
71303;SDS011;59091;47.446;19.148;2024-02-21T05:38:40;11.35;;;4.72;;
71303;SDS011;59091;47.446;19.148;2024-02-21T05:41:05;16.63;;;7.13;;
71303;SDS011;59091;47.446;19.148;2024-02-21T05:43:31;18.30;;;8.65;;
71303;SDS011;59091;47.446;19.148;2024-02-21T05:45:57;12.82;;;6.60;;
71303;SDS011;59091;47.446;19.148;2024-02-21T05:48:23;11.77;;;5.70;;
71303;SDS011;59091;47.446;19.148;2024-02-21T05:50:49;9.32;;;4.90;;
71303;SDS011;59091;47.446;19.148;2024-02-21T05:53:14;7.80;;;4.53;;
71303;SDS011;59091;47.446;19.148;2024-02-21T05:55:40;6.80;;;4.57;;
71303;SDS011;59091;47.446;19.148;2024-02-21T05:58:06;11.35;;;4.05;;
71303;SDS011;59091;47.446;19.148;2024-02-21T06:00:32;15.82;;;5.20;;
71303;SDS011;59091;47.446;19.148;2024-02-21T06:02:58;9.70;;;4.50;;
71303;SDS011;59091;47.446;19.148;2024-02-21T06:05:23;4.07;;;3.53;;
71303;SDS011;59091;47.446;19.148;2024-02-21T06:07:49;6.13;;;3.92;;
71303;SDS011;59091;47.446;19.148;2024-02-21T06:10:14;7.70;;;4.25;;
71303;SDS011;59091;47.446;19.148;2024-02-21T06:12:39;9.68;;;4.38;;
71303;SDS011;59091;47.446;19.148;2024-02-21T06:15:05;10.10;;;4.10;;
71303;SDS011;59091;47.446;19.148;2024-02-21T06:17:31;10.63;;;3.95;;
71303;SDS011;59091;47.446;19.148;2024-02-21T06:19:56;6.88;;;3.72;;
71303;SDS011;59091;47.446;19.148;2024-02-21T06:22:22;8.63;;;4.30;;
71303;SDS011;59091;47.446;19.148;2024-02-21T06:24:47;10.05;;;4.38;;
71303;SDS011;59091;47.446;19.148;2024-02-21T06:27:12;8.90;;;3.95;;
71303;SDS011;59091;47.446;19.148;2024-02-21T06:29:40;10.18;;;3.95;;
71303;SDS011;59091;47.446;19.148;2024-02-21T06:32:05;7.65;;;3.90;;
71303;SDS011;59091;47.446;19.148;2024-02-21T06:34:31;7.03;;;3.80;;
71303;SDS011;59091;47.446;19.148;2024-02-21T06:36:56;6.78;;;4.03;;
71303;SDS011;59091;47.446;19.148;2024-02-21T06:39:22;12.10;;;4.40;;
71303;SDS011;59091;47.446;19.148;2024-02-21T06:41:48;8.35;;;3.97;;
71303;SDS011;59091;47.446;19.148;2024-02-21T06:44:15;8.05;;;3.80;;
71303;SDS011;59091;47.446;19.148;2024-02-21T06:46:41;9.63;;;4.18;;
71303;SDS011;59091;47.446;19.148;2024-02-21T06:49:06;8.73;;;4.40;;
71303;SDS011;59091;47.446;19.148;2024-02-21T06:51:32;9.73;;;4.00;;
71303;SDS011;59091;47.446;19.148;2024-02-21T06:53:58;9.80;;;4.95;;
71303;SDS011;59091;47.446;19.148;2024-02-21T06:56:24;7.50;;;4.13;;
71303;SDS011;59091;47.446;19.148;2024-02-21T06:58:56;9.00;;;4.40;;
71303;SDS011;59091;47.446;19.148;2024-02-21T07:01:22;11.88;;;4.32;;
71303;SDS011;59091;47.446;19.148;2024-02-21T07:03:48;7.05;;;4.25;;
71303;SDS011;59091;47.446;19.148;2024-02-21T07:06:13;13.82;;;5.13;;
71303;SDS011;59091;47.446;19.148;2024-02-21T07:08:39;6.15;;;4.53;;
71303;SDS011;59091;47.446;19.148;2024-02-21T07:11:04;15.27;;;4.80;;
71303;SDS011;59091;47.446;19.148;2024-02-21T07:13:30;8.85;;;4.20;;
71303;SDS011;59091;47.446;19.148;2024-02-21T07:15:55;8.52;;;4.53;;
71303;SDS011;59091;47.446;19.148;2024-02-21T07:18:21;10.30;;;4.28;;
71303;SDS011;59091;47.446;19.148;2024-02-21T07:20:46;10.98;;;4.38;;
71303;SDS011;59091;47.446;19.148;2024-02-21T07:23:12;10.85;;;4.47;;
71303;SDS011;59091;47.446;19.148;2024-02-21T07:25:38;9.00;;;4.80;;
71303;SDS011;59091;47.446;19.148;2024-02-21T07:28:04;11.90;;;4.50;;
71303;SDS011;59091;47.446;19.148;2024-02-21T07:30:30;13.55;;;4.05;;
71303;SDS011;59091;47.446;19.148;2024-02-21T07:32:55;27.27;;;4.55;;
71303;SDS011;59091;47.446;19.148;2024-02-21T07:35:21;11.07;;;4.20;;
71303;SDS011;59091;47.446;19.148;2024-02-21T07:37:46;11.23;;;4.80;;
71303;SDS011;59091;47.446;19.148;2024-02-21T07:40:15;7.43;;;4.00;;
71303;SDS011;59091;47.446;19.148;2024-02-21T07:42:42;13.20;;;4.55;;
71303;SDS011;59091;47.446;19.148;2024-02-21T07:45:08;10.13;;;4.70;;
71303;SDS011;59091;47.446;19.148;2024-02-21T07:47:34;13.48;;;4.82;;
71303;SDS011;59091;47.446;19.148;2024-02-21T07:49:59;12.77;;;4.65;;
71303;SDS011;59091;47.446;19.148;2024-02-21T07:52:25;10.73;;;4.20;;
71303;SDS011;59091;47.446;19.148;2024-02-21T07:54:50;18.10;;;5.60;;
71303;SDS011;59091;47.446;19.148;2024-02-21T07:57:16;9.35;;;4.07;;
71303;SDS011;59091;47.446;19.148;2024-02-21T07:59:41;13.15;;;4.70;;
71303;SDS011;59091;47.446;19.148;2024-02-21T08:02:07;10.90;;;4.72;;
71303;SDS011;59091;47.446;19.148;2024-02-21T08:04:32;8.95;;;4.28;;
71303;SDS011;59091;47.446;19.148;2024-02-21T08:06:58;11.32;;;4.47;;
71303;SDS011;59091;47.446;19.148;2024-02-21T08:09:29;7.72;;;4.70;;
71303;SDS011;59091;47.446;19.148;2024-02-21T08:11:55;14.10;;;4.72;;
71303;SDS011;59091;47.446;19.148;2024-02-21T08:14:20;13.25;;;4.47;;
71303;SDS011;59091;47.446;19.148;2024-02-21T08:16:46;9.70;;;4.57;;
71303;SDS011;59091;47.446;19.148;2024-02-21T08:19:12;9.98;;;4.60;;
71303;SDS011;59091;47.446;19.148;2024-02-21T08:21:37;10.38;;;4.45;;
71303;SDS011;59091;47.446;19.148;2024-02-21T08:24:03;10.43;;;4.55;;
71303;SDS011;59091;47.446;19.148;2024-02-21T08:26:29;9.73;;;4.13;;
71303;SDS011;59091;47.446;19.148;2024-02-21T08:28:58;9.57;;;3.97;;
71303;SDS011;59091;47.446;19.148;2024-02-21T08:31:25;11.27;;;3.80;;
71303;SDS011;59091;47.446;19.148;2024-02-21T08:33:56;9.32;;;3.50;;
71303;SDS011;59091;47.446;19.148;2024-02-21T08:36:27;5.65;;;2.85;;
71303;SDS011;59091;47.446;19.148;2024-02-21T08:38:53;5.32;;;2.70;;
71303;SDS011;59091;47.446;19.148;2024-02-21T08:41:18;7.10;;;3.22;;
71303;SDS011;59091;47.446;19.148;2024-02-21T08:43:44;11.02;;;3.20;;
71303;SDS011;59091;47.446;19.148;2024-02-21T08:46:09;12.02;;;2.92;;
71303;SDS011;59091;47.446;19.148;2024-02-21T08:48:35;11.73;;;3.13;;
71303;SDS011;59091;47.446;19.148;2024-02-21T08:51:00;9.25;;;3.00;;
71303;SDS011;59091;47.446;19.148;2024-02-21T08:53:25;9.85;;;2.97;;
71303;SDS011;59091;47.446;19.148;2024-02-21T08:55:51;9.50;;;3.20;;
71303;SDS011;59091;47.446;19.148;2024-02-21T08:58:17;7.28;;;3.13;;
71303;SDS011;59091;47.446;19.148;2024-02-21T09:00:42;7.30;;;2.42;;
71303;SDS011;59091;47.446;19.148;2024-02-21T09:03:08;10.80;;;2.70;;
71303;SDS011;59091;47.446;19.148;2024-02-21T09:05:33;8.85;;;2.97;;
71303;SDS011;59091;47.446;19.148;2024-02-21T09:08:00;12.30;;;3.25;;
71303;SDS011;59091;47.446;19.148;2024-02-21T09:10:25;8.68;;;2.47;;
71303;SDS011;59091;47.446;19.148;2024-02-21T09:12:51;7.53;;;2.72;;
71303;SDS011;59091;47.446;19.148;2024-02-21T09:15:16;10.43;;;3.50;;
71303;SDS011;59091;47.446;19.148;2024-02-21T09:17:41;29.40;;;3.78;;
71303;SDS011;59091;47.446;19.148;2024-02-21T09:20:07;6.47;;;3.15;;
71303;SDS011;59091;47.446;19.148;2024-02-21T09:22:33;11.80;;;3.00;;
71303;SDS011;59091;47.446;19.148;2024-02-21T09:24:59;10.27;;;3.13;;
71303;SDS011;59091;47.446;19.148;2024-02-21T09:27:25;11.88;;;3.00;;
71303;SDS011;59091;47.446;19.148;2024-02-21T09:29:51;7.13;;;2.58;;
71303;SDS011;59091;47.446;19.148;2024-02-21T09:32:17;9.80;;;3.03;;
71303;SDS011;59091;47.446;19.148;2024-02-21T09:34:44;9.20;;;3.42;;
71303;SDS011;59091;47.446;19.148;2024-02-21T09:37:10;5.97;;;2.22;;
71303;SDS011;59091;47.446;19.148;2024-02-21T09:39:35;11.02;;;3.00;;
71303;SDS011;59091;47.446;19.148;2024-02-21T09:42:03;11.85;;;3.65;;
71303;SDS011;59091;47.446;19.148;2024-02-21T09:44:33;10.90;;;3.33;;
71303;SDS011;59091;47.446;19.148;2024-02-21T09:47:12;13.27;;;3.15;;
71303;SDS011;59091;47.446;19.148;2024-02-21T09:49:59;10.02;;;3.25;;
71303;SDS011;59091;47.446;19.148;2024-02-21T09:52:26;10.32;;;3.50;;
71303;SDS011;59091;47.446;19.148;2024-02-21T09:54:52;5.20;;;2.92;;
71303;SDS011;59091;47.446;19.148;2024-02-21T09:57:19;10.25;;;3.00;;
71303;SDS011;59091;47.446;19.148;2024-02-21T09:59:45;10.32;;;2.85;;
71303;SDS011;59091;47.446;19.148;2024-02-21T10:02:11;7.25;;;2.92;;
71303;SDS011;59091;47.446;19.148;2024-02-21T10:04:37;10.20;;;3.03;;
71303;SDS011;59091;47.446;19.148;2024-02-21T10:07:05;8.82;;;3.30;;
71303;SDS011;59091;47.446;19.148;2024-02-21T10:09:30;10.25;;;3.22;;
71303;SDS011;59091;47.446;19.148;2024-02-21T10:11:56;8.27;;;2.70;;
71303;SDS011;59091;47.446;19.148;2024-02-21T10:14:33;7.53;;;2.92;;
71303;SDS011;59091;47.446;19.148;2024-02-21T10:16:58;9.15;;;3.17;;
71303;SDS011;59091;47.446;19.148;2024-02-21T10:19:24;10.00;;;3.22;;
71303;SDS011;59091;47.446;19.148;2024-02-21T10:22:02;7.35;;;2.78;;
71303;SDS011;59091;47.446;19.148;2024-02-21T10:24:29;9.02;;;3.00;;
71303;SDS011;59091;47.446;19.148;2024-02-21T10:27:01;9.57;;;2.83;;
71303;SDS011;59091;47.446;19.148;2024-02-21T10:29:33;6.65;;;3.08;;
71303;SDS011;59091;47.446;19.148;2024-02-21T10:32:09;5.03;;;2.80;;
71303;SDS011;59091;47.446;19.148;2024-02-21T10:34:36;6.32;;;2.75;;
71303;SDS011;59091;47.446;19.148;2024-02-21T10:37:03;10.18;;;3.47;;
71303;SDS011;59091;47.446;19.148;2024-02-21T10:39:39;9.55;;;3.40;;
71303;SDS011;59091;47.446;19.148;2024-02-21T10:42:05;9.20;;;3.40;;
71303;SDS011;59091;47.446;19.148;2024-02-21T10:44:31;8.63;;;3.15;;
71303;SDS011;59091;47.446;19.148;2024-02-21T10:46:57;5.38;;;2.70;;
71303;SDS011;59091;47.446;19.148;2024-02-21T10:49:24;6.97;;;2.70;;
71303;SDS011;59091;47.446;19.148;2024-02-21T10:52:06;10.10;;;2.75;;
71303;SDS011;59091;47.446;19.148;2024-02-21T10:54:45;6.55;;;3.05;;
71303;SDS011;59091;47.446;19.148;2024-02-21T10:57:18;7.68;;;3.35;;
71303;SDS011;59091;47.446;19.148;2024-02-21T10:59:45;14.05;;;3.30;;
71303;SDS011;59091;47.446;19.148;2024-02-21T11:02:13;7.47;;;2.85;;
71303;SDS011;59091;47.446;19.148;2024-02-21T11:04:39;7.95;;;2.65;;
71303;SDS011;59091;47.446;19.148;2024-02-21T11:07:06;8.73;;;2.90;;
71303;SDS011;59091;47.446;19.148;2024-02-21T11:09:32;11.57;;;3.15;;
71303;SDS011;59091;47.446;19.148;2024-02-21T11:11:58;11.10;;;3.25;;
71303;SDS011;59091;47.446;19.148;2024-02-21T11:14:28;7.43;;;3.53;;
71303;SDS011;59091;47.446;19.148;2024-02-21T11:16:57;10.52;;;3.30;;
71303;SDS011;59091;47.446;19.148;2024-02-21T11:19:25;10.07;;;3.10;;
71303;SDS011;59091;47.446;19.148;2024-02-21T11:21:52;12.57;;;3.50;;
71303;SDS011;59091;47.446;19.148;2024-02-21T11:24:34;8.75;;;3.30;;
71303;SDS011;59091;47.446;19.148;2024-02-21T11:27:12;9.32;;;2.88;;
71303;SDS011;59091;47.446;19.148;2024-02-21T11:32:18;11.55;;;3.28;;
71303;SDS011;59091;47.446;19.148;2024-02-21T11:37:27;7.65;;;2.97;;
71303;SDS011;59091;47.446;19.148;2024-02-21T11:39:54;9.85;;;3.30;;
71303;SDS011;59091;47.446;19.148;2024-02-21T11:42:20;10.10;;;3.00;;
71303;SDS011;59091;47.446;19.148;2024-02-21T11:44:45;11.32;;;3.05;;
71303;SDS011;59091;47.446;19.148;2024-02-21T11:47:11;8.68;;;3.10;;
71303;SDS011;59091;47.446;19.148;2024-02-21T11:49:46;10.18;;;3.10;;
71303;SDS011;59091;47.446;19.148;2024-02-21T11:52:14;11.93;;;3.58;;
71303;SDS011;59091;47.446;19.148;2024-02-21T11:54:44;9.85;;;3.40;;
71303;SDS011;59091;47.446;19.148;2024-02-21T11:57:09;11.10;;;3.80;;
71303;SDS011;59091;47.446;19.148;2024-02-21T11:59:36;11.68;;;3.53;;
71303;SDS011;59091;47.446;19.148;2024-02-21T12:02:01;7.90;;;3.10;;
71303;SDS011;59091;47.446;19.148;2024-02-21T12:04:30;8.98;;;3.38;;
71303;SDS011;59091;47.446;19.148;2024-02-21T12:06:56;13.65;;;3.42;;
71303;SDS011;59091;47.446;19.148;2024-02-21T12:09:23;13.93;;;3.50;;
71303;SDS011;59091;47.446;19.148;2024-02-21T12:14:31;8.88;;;3.15;;
71303;SDS011;59091;47.446;19.148;2024-02-21T12:16:58;6.85;;;2.90;;
71303;SDS011;59091;47.446;19.148;2024-02-21T12:19:24;9.32;;;3.42;;
71303;SDS011;59091;47.446;19.148;2024-02-21T12:21:50;8.25;;;3.40;;
71303;SDS011;59091;47.446;19.148;2024-02-21T12:24:20;9.65;;;3.08;;
71303;SDS011;59091;47.446;19.148;2024-02-21T12:26:47;10.65;;;3.63;;
71303;SDS011;59091;47.446;19.148;2024-02-21T12:29:13;6.28;;;2.80;;
71303;SDS011;59091;47.446;19.148;2024-02-21T12:31:38;7.05;;;3.03;;
71303;SDS011;59091;47.446;19.148;2024-02-21T12:34:04;10.55;;;3.42;;
71303;SDS011;59091;47.446;19.148;2024-02-21T12:36:31;7.53;;;2.63;;
71303;SDS011;59091;47.446;19.148;2024-02-21T12:38:56;7.88;;;3.13;;
71303;SDS011;59091;47.446;19.148;2024-02-21T12:41:22;10.07;;;3.40;;
71303;SDS011;59091;47.446;19.148;2024-02-21T12:43:47;7.55;;;2.88;;
71303;SDS011;59091;47.446;19.148;2024-02-21T12:46:13;8.63;;;3.00;;
71303;SDS011;59091;47.446;19.148;2024-02-21T12:48:38;11.73;;;3.45;;
71303;SDS011;59091;47.446;19.148;2024-02-21T12:51:04;5.82;;;2.83;;
71303;SDS011;59091;47.446;19.148;2024-02-21T12:53:30;11.75;;;3.10;;
71303;SDS011;59091;47.446;19.148;2024-02-21T12:55:56;9.65;;;3.05;;
71303;SDS011;59091;47.446;19.148;2024-02-21T12:58:21;8.73;;;2.92;;
71303;SDS011;59091;47.446;19.148;2024-02-21T13:00:47;7.90;;;2.70;;
71303;SDS011;59091;47.446;19.148;2024-02-21T13:03:13;8.60;;;2.63;;
71303;SDS011;59091;47.446;19.148;2024-02-21T13:05:39;5.75;;;2.35;;
71303;SDS011;59091;47.446;19.148;2024-02-21T13:08:08;9.32;;;2.70;;
71303;SDS011;59091;47.446;19.148;2024-02-21T13:10:34;5.97;;;2.60;;
71303;SDS011;59091;47.446;19.148;2024-02-21T13:13:00;6.63;;;2.53;;
71303;SDS011;59091;47.446;19.148;2024-02-21T13:15:26;6.32;;;3.25;;
71303;SDS011;59091;47.446;19.148;2024-02-21T13:17:53;11.07;;;3.38;;
71303;SDS011;59091;47.446;19.148;2024-02-21T13:20:19;6.35;;;2.70;;
71303;SDS011;59091;47.446;19.148;2024-02-21T13:22:45;8.68;;;2.70;;
71303;SDS011;59091;47.446;19.148;2024-02-21T13:25:11;7.65;;;2.50;;
71303;SDS011;59091;47.446;19.148;2024-02-21T13:27:40;8.93;;;3.53;;
71303;SDS011;59091;47.446;19.148;2024-02-21T13:30:05;16.70;;;3.63;;
71303;SDS011;59091;47.446;19.148;2024-02-21T13:32:33;5.97;;;2.95;;
71303;SDS011;59091;47.446;19.148;2024-02-21T13:34:59;13.05;;;3.40;;
71303;SDS011;59091;47.446;19.148;2024-02-21T13:37:26;13.57;;;3.55;;
71303;SDS011;59091;47.446;19.148;2024-02-21T13:39:52;11.63;;;3.20;;
71303;SDS011;59091;47.446;19.148;2024-02-21T13:42:18;12.02;;;3.55;;
71303;SDS011;59091;47.446;19.148;2024-02-21T13:44:44;8.35;;;3.20;;
71303;SDS011;59091;47.446;19.148;2024-02-21T13:47:09;10.88;;;3.13;;
71303;SDS011;59091;47.446;19.148;2024-02-21T13:49:36;7.82;;;2.95;;
71303;SDS011;59091;47.446;19.148;2024-02-21T13:52:01;14.57;;;3.10;;
71303;SDS011;59091;47.446;19.148;2024-02-21T13:54:27;7.22;;;3.17;;
71303;SDS011;59091;47.446;19.148;2024-02-21T13:56:52;6.72;;;2.97;;
71303;SDS011;59091;47.446;19.148;2024-02-21T13:59:18;12.38;;;2.63;;
71303;SDS011;59091;47.446;19.148;2024-02-21T14:01:43;7.63;;;2.92;;
71303;SDS011;59091;47.446;19.148;2024-02-21T14:04:09;7.13;;;2.25;;
71303;SDS011;59091;47.446;19.148;2024-02-21T14:06:34;8.88;;;3.10;;
71303;SDS011;59091;47.446;19.148;2024-02-21T14:09:00;5.78;;;2.30;;
71303;SDS011;59091;47.446;19.148;2024-02-21T14:11:26;5.47;;;2.20;;
71303;SDS011;59091;47.446;19.148;2024-02-21T14:13:52;10.82;;;2.53;;
71303;SDS011;59091;47.446;19.148;2024-02-21T14:16:18;8.88;;;2.53;;
71303;SDS011;59091;47.446;19.148;2024-02-21T14:18:43;6.95;;;2.30;;
71303;SDS011;59091;47.446;19.148;2024-02-21T14:21:09;6.05;;;2.30;;
71303;SDS011;59091;47.446;19.148;2024-02-21T14:23:37;5.32;;;2.30;;
71303;SDS011;59091;47.446;19.148;2024-02-21T14:26:03;8.50;;;2.83;;
71303;SDS011;59091;47.446;19.148;2024-02-21T14:28:29;12.30;;;2.75;;
71303;SDS011;59091;47.446;19.148;2024-02-21T14:30:55;9.52;;;2.65;;
71303;SDS011;59091;47.446;19.148;2024-02-21T14:33:28;7.03;;;2.65;;